Time;durP1;ratioP1;P1;durP2;ratioP2;P2;SDS_P1;SDS_P2;PMS_P1;PMS_P2;Temp;Humidity;BMP_temperature;BMP_pressure;BME280_temperature;BME280_humidity;BME280_pressure;Samples;Min_cycle;Max_cycle;Signal;HPM_P1;HPM_P2
2021/12/27 00:00:11;;;;;;;;;;;;;;;-7.45;82.60;100821.28;5017149;28;19923;-71
2021/12/27 00:02:36;;;;;;;;;;;;;;;-7.48;82.38;100816.25;5016198;28;20412;-71
2021/12/27 00:05:02;;;;;;;;;;;;;;;-7.48;82.70;100813.69;4989484;28;20008;-75
2021/12/27 00:07:28;;;;;;;;;;;;;;;-7.48;82.47;100811.13;5034836;28;19917;-72
2021/12/27 00:09:54;;;;;;;;;;;;;;;-7.53;82.74;100801.06;5021968;28;19917;-71
2021/12/27 00:12:20;;;;;;;;;;;;;;;-7.54;82.99;100798.53;5024520;28;19921;-71
2021/12/27 00:14:46;;;;;;;;;;;;;;;-7.47;82.62;100792.44;5017135;28;19964;-72
2021/12/27 00:17:11;;;;;;;;;;;;;;;-7.50;83.02;100793.31;5015994;28;19948;-72
2021/12/27 00:19:37;;;;;;;;;;;;;;;-7.49;83.03;100779.72;5022390;28;19917;-72
2021/12/27 00:22:03;;;;;;;;;;;;;;;-7.52;83.35;100781.50;5029874;28;20414;-72
2021/12/27 00:24:29;;;;;;;;;;;;;;;-7.48;83.00;100781.44;5015556;28;19921;-72
2021/12/27 00:26:54;;;;;;;;;;;;;;;-7.46;83.00;100777.13;5024679;28;19916;-72
2021/12/27 00:29:20;;;;;;;;;;;;;;;-7.36;83.29;100775.22;5011891;28;19924;-73
2021/12/27 00:31:46;;;;;;;;;;;;;;;-7.28;82.85;100782.72;5010834;28;19964;-73
2021/12/27 00:34:11;;;;;;;;;;;;;;;-7.24;83.41;100774.97;5021801;28;20275;-72
2021/12/27 00:36:37;;;;;;;;;;;;;;;-7.08;83.09;100769.56;5019759;28;20366;-72
2021/12/27 00:39:03;;;;;;;;;;;;;;;-7.13;83.77;100766.25;4988304;28;20004;-72
2021/12/27 00:41:28;;;;;;;;;;;;;;;-7.03;83.52;100767.72;5034880;28;19956;-72
2021/12/27 00:43:54;;;;;;;;;;;;;;;-7.03;83.49;100762.63;5015025;28;19959;-73
2021/12/27 00:46:19;;;;;;;;;;;;;;;-6.99;83.20;100758.28;4974463;28;20387;-74
2021/12/27 00:48:45;;;;;;;;;;;;;;;-7.06;83.39;100757.59;5003689;28;20430;-72
2021/12/27 00:51:10;;;;;;;;;;;;;;;-7.07;83.57;100758.47;5009324;28;19985;-72
2021/12/27 00:53:36;;;;;;;;;;;;;;;-7.07;84.49;100748.25;5013521;28;19944;-71
2021/12/27 00:56:01;;;;;;;;;;;;;;;-7.05;83.85;100749.06;5022163;28;19913;-72
2021/12/27 00:58:27;;;;;;;;;;;;;;;-7.02;83.78;100753.28;5012818;28;19954;-71
2021/12/27 01:00:52;;;;;;;;;;;;;;;-7.14;84.23;100751.81;5027440;28;19923;-72
2021/12/27 01:03:20;;;;;;;;;;;;;;;-7.13;84.24;100746.69;5016869;28;19921;-73
2021/12/27 01:05:45;;;;;;;;;;;;;;;-7.14;84.32;100744.16;5006595;28;19924;-72
2021/12/27 01:08:11;;;;;;;;;;;;;;;-7.10;84.12;100746.63;5025696;28;19917;-71
2021/12/27 01:18:06;;;;;;;;;;;;;;;-6.95;85.24;100745.44;5004387;28;20007;-71
2021/12/27 01:20:32;;;;;;;;;;;;;;;-6.87;85.32;100742.72;5008452;28;20019;-73
2021/12/27 01:22:58;;;;;;;;;;;;;;;-6.83;85.85;100741.78;5024352;28;19925;-72
2021/12/27 01:25:24;;;;;;;;;;;;;;;-6.86;85.40;100731.63;4993302;28;19968;-72
2021/12/27 01:27:53;;;;;;;;;;;;;;;-6.83;85.97;100733.28;4984450;28;19920;-73
2021/12/27 01:30:20;;;;;;;;;;;;;;;-6.79;85.78;100737.44;4996099;28;19940;-72
2021/12/27 01:32:53;;;;;;;;;;;;;;;-6.72;85.48;100741.53;5013838;28;19917;-72
2021/12/27 01:35:19;;;;;;;;;;;;;;;-6.75;85.83;100736.47;4999925;28;19925;-73
2021/12/27 01:37:45;;;;;;;;;;;;;;;-6.78;86.21;100731.44;5030170;28;19925;-72
2021/12/27 01:40:11;;;;;;;;;;;;;;;-6.80;87.57;100734.03;5019690;28;19913;-73
2021/12/27 01:42:57;;;;;;;;;;;;;;;-6.70;86.31;100735.50;5013450;28;19921;-73
2021/12/27 01:45:23;;;;;;;;;;;;;;;-6.68;87.04;100728.66;5016168;28;19921;-73
2021/12/27 01:47:49;;;;;;;;;;;;;;;-6.70;86.85;100725.28;5016437;28;20370;-73
2021/12/27 01:50:15;;;;;;;;;;;;;;;-6.66;87.15;100721.78;5016561;28;19966;-71
2021/12/27 01:52:40;;;;;;;;;;;;;;;-6.63;87.52;100720.03;4988104;28;19912;-73
2021/12/27 01:55:05;;;;;;;;;;;;;;;-6.51;86.60;100724.84;5031510;28;19916;-72
2021/12/27 01:57:31;;;;;;;;;;;;;;;-6.60;86.80;100707.22;5043656;28;19913;-72
2021/12/27 01:59:57;;;;;;;;;;;;;;;-6.58;86.80;100711.38;5000280;28;20142;-72
2021/12/27 02:02:22;;;;;;;;;;;;;;;-6.54;86.68;100699.41;5000407;28;19967;-74
2021/12/27 02:04:47;;;;;;;;;;;;;;;-6.55;87.04;100710.50;5014237;28;19925;-72
2021/12/27 02:07:13;;;;;;;;;;;;;;;-6.52;86.70;100718.06;4995478;28;19913;-72
2021/12/27 02:09:49;;;;;;;;;;;;;;;-6.50;86.70;100717.16;5025452;28;20400;-72
2021/12/27 02:12:15;;;;;;;;;;;;;;;-6.50;86.83;100711.19;5030307;28;20015;-72
2021/12/27 02:14:40;;;;;;;;;;;;;;;-6.48;86.43;100701.78;5011208;28;20008;-73
2021/12/27 02:17:06;;;;;;;;;;;;;;;-6.56;87.00;100685.84;5021435;28;19944;-72
2021/12/27 02:19:35;;;;;;;;;;;;;;;-6.55;86.70;100684.97;5030009;28;19913;-72
2021/12/27 02:22:00;;;;;;;;;;;;;;;-6.59;86.57;100674.00;5004397;28;20430;-72
2021/12/27 02:24:26;;;;;;;;;;;;;;;-6.64;86.39;100675.00;4993151;28;19922;-73
2021/12/27 02:26:51;;;;;;;;;;;;;;;-6.68;86.75;100675.06;5016232;28;19939;-72
2021/12/27 02:29:17;;;;;;;;;;;;;;;-6.76;87.13;100669.34;5028594;28;19957;-73
2021/12/27 02:31:43;;;;;;;;;;;;;;;-6.78;87.92;100660.03;5024165;28;19921;-72
2021/12/27 02:34:10;;;;;;;;;;;;;;;-6.85;88.18;100667.84;5009782;28;20321;-72
2021/12/27 02:36:35;;;;;;;;;;;;;;;-6.79;87.66;100668.56;5001594;28;20404;-72
2021/12/27 02:39:02;;;;;;;;;;;;;;;-6.77;88.35;100661.72;5021719;28;19917;-74
2021/12/27 02:41:27;;;;;;;;;;;;;;;-6.87;88.06;100650.91;5041304;28;20382;-72
2021/12/27 02:43:53;;;;;;;;;;;;;;;-6.80;88.39;100651.56;5012384;28;19928;-73
2021/12/27 02:46:18;;;;;;;;;;;;;;;-6.82;88.88;100643.94;5013674;28;19917;-72
2021/12/27 02:48:46;;;;;;;;;;;;;;;-6.89;88.58;100640.75;5018225;28;20743;-73
2021/12/27 02:51:12;;;;;;;;;;;;;;;-6.90;89.41;100641.59;5016876;28;19987;-73
2021/12/27 02:53:37;;;;;;;;;;;;;;;-6.81;89.58;100642.25;5011958;28;19917;-71
2021/12/27 02:56:04;;;;;;;;;;;;;;;-6.81;89.47;100643.09;5011791;28;19917;-72
2021/12/27 02:58:30;;;;;;;;;;;;;;;-6.75;88.81;100644.66;5011522;28;19918;-72
2021/12/27 03:00:55;;;;;;;;;;;;;;;-6.69;89.10;100649.59;5011487;28;19924;-72
2021/12/27 03:03:21;;;;;;;;;;;;;;;-6.64;88.80;100649.50;5023571;28;19921;-71
2021/12/27 03:05:46;;;;;;;;;;;;;;;-6.67;89.48;100637.63;5018569;28;19923;-71
2021/12/27 03:08:16;;;;;;;;;;;;;;;-6.63;89.21;100639.22;5026059;28;19943;-71
2021/12/27 03:10:46;;;;;;;;;;;;;;;-6.60;89.42;100634.03;5030048;28;19943;-72
2021/12/27 03:13:16;;;;;;;;;;;;;;;-6.58;89.63;100624.63;5035040;28;19919;-72
2021/12/27 03:15:41;;;;;;;;;;;;;;;-6.52;89.30;100621.91;5013982;28;20386;-73
2021/12/27 03:18:07;;;;;;;;;;;;;;;-6.58;89.26;100621.25;5020264;28;19917;-73
2021/12/27 03:20:32;;;;;;;;;;;;;;;-6.53;88.93;100620.25;5020998;28;20392;-71
2021/12/27 03:22:58;;;;;;;;;;;;;;;-6.56;89.03;100609.28;5001138;28;19970;-73
2021/12/27 03:25:24;;;;;;;;;;;;;;;-6.57;89.34;100605.91;5034798;28;20020;-72
2021/12/27 03:27:50;;;;;;;;;;;;;;;-6.56;88.98;100612.66;5009203;28;19914;-73
2021/12/27 03:30:17;;;;;;;;;;;;;;;-6.57;89.29;100613.56;5016332;28;19917;-72
2021/12/27 03:32:43;;;;;;;;;;;;;;;-6.57;89.15;100608.47;4993933;28;19917;-72
2021/12/27 03:35:13;;;;;;;;;;;;;;;-6.54;89.36;100594.78;5009087;28;19917;-71
2021/12/27 03:37:40;;;;;;;;;;;;;;;-6.61;89.22;100604.31;5015575;28;19975;-72
2021/12/27 03:40:07;;;;;;;;;;;;;;;-6.62;90.46;100594.97;5021839;28;19966;-71
2021/12/27 03:42:33;;;;;;;;;;;;;;;-6.53;89.79;100599.00;5028094;28;20016;-72
2021/12/27 03:44:59;;;;;;;;;;;;;;;-6.51;89.21;100603.19;5017776;28;19995;-73
2021/12/27 03:47:24;;;;;;;;;;;;;;;-6.49;89.04;100606.53;4993906;28;20003;-72
2021/12/27 03:49:50;;;;;;;;;;;;;;;-6.47;89.74;100606.50;5009290;28;19927;-72
2021/12/27 03:52:15;;;;;;;;;;;;;;;-6.48;89.90;100608.22;5016249;28;19923;-72
2021/12/27 03:54:41;;;;;;;;;;;;;;;-6.39;90.28;100611.38;5018644;28;19997;-72
2021/12/27 03:57:06;;;;;;;;;;;;;;;-6.39;89.86;100609.66;5021621;28;19917;-72
2021/12/27 04:02:24;;;;;;;;;;;;;;;-6.21;89.51;100599.84;5015442;28;19928;-71
2021/12/27 04:05:11;;;;;;;;;;;;;;;-6.19;89.00;100606.56;5031211;28;19982;-72
2021/12/27 04:08:00;;;;;;;;;;;;;;;-6.24;89.48;100599.91;5013219;28;20024;-71
2021/12/27 04:10:45;;;;;;;;;;;;;;;-6.17;89.41;100601.41;5030030;28;19923;-73
2021/12/27 04:13:29;;;;;;;;;;;;;;;-6.23;90.10;100587.13;5021271;28;19924;-72
2021/12/27 04:15:55;;;;;;;;;;;;;;;-6.22;91.26;100580.28;5001259;28;19913;-72
2021/12/27 04:18:20;;;;;;;;;;;;;;;-6.12;90.75;100574.88;5015723;28;19917;-73
2021/12/27 04:20:46;;;;;;;;;;;;;;;-6.15;89.66;100572.41;5001217;28;19921;-73
2021/12/27 04:23:12;;;;;;;;;;;;;;;-6.14;89.63;100579.19;5001377;28;19928;-72
2021/12/27 04:25:38;;;;;;;;;;;;;;;-6.11;90.06;100573.97;5024925;28;20375;-72
2021/12/27 04:28:04;;;;;;;;;;;;;;;-6.02;89.61;100570.31;5016071;28;20023;-72
2021/12/27 04:30:29;;;;;;;;;;;;;;;-6.02;90.37;100556.72;5014413;28;20063;-72
2021/12/27 04:32:55;;;;;;;;;;;;;;;-6.04;90.96;100550.84;5007411;28;19941;-72
2021/12/27 04:35:21;;;;;;;;;;;;;;;-5.95;90.40;100551.38;5004431;28;19924;-72
2021/12/27 04:37:47;;;;;;;;;;;;;;;-6.02;89.69;100549.91;4997068;28;19922;-72
2021/12/27 04:40:13;;;;;;;;;;;;;;;-6.01;90.53;100550.72;5008395;28;19921;-74
2021/12/27 04:42:42;;;;;;;;;;;;;;;-5.99;89.82;100549.81;5028787;28;19966;-71
2021/12/27 04:45:08;;;;;;;;;;;;;;;-5.97;90.18;100558.28;5017737;28;19913;-72
2021/12/27 04:47:33;;;;;;;;;;;;;;;-5.92;90.28;100555.53;5008992;28;19928;-72
2021/12/27 04:49:59;;;;;;;;;;;;;;;-5.89;89.14;100548.63;5009961;28;20279;-72
2021/12/27 04:52:25;;;;;;;;;;;;;;;-5.88;90.48;100546.88;5034262;28;19917;-72
2021/12/27 04:54:50;;;;;;;;;;;;;;;-5.87;90.62;100544.28;5024303;28;20595;-73
2021/12/27 04:57:16;;;;;;;;;;;;;;;-5.87;89.69;100540.91;5019765;28;19988;-72
2021/12/27 04:59:42;;;;;;;;;;;;;;;-5.85;89.97;100533.19;5018624;28;19928;-72
2021/12/27 05:02:07;;;;;;;;;;;;;;;-5.83;89.99;100527.16;5034428;28;19913;-72
2021/12/27 05:04:32;;;;;;;;;;;;;;;-5.84;89.66;100524.63;5018817;28;20039;-72
2021/12/27 05:06:58;;;;;;;;;;;;;;;-5.85;90.17;100521.25;5022490;28;20297;-73
2021/12/27 05:09:24;;;;;;;;;;;;;;;-5.85;89.80;100517.88;5012499;28;19932;-73
2021/12/27 05:11:49;;;;;;;;;;;;;;;-5.87;91.13;100523.03;5022404;28;20330;-73
2021/12/27 05:14:15;;;;;;;;;;;;;;;-5.92;92.28;100520.59;5020311;28;19917;-73
2021/12/27 05:16:40;;;;;;;;;;;;;;;-5.85;92.87;100526.38;5031135;28;19917;-74
2021/12/27 05:19:06;;;;;;;;;;;;;;;-5.83;92.29;100524.59;5024918;28;19924;-71
2021/12/27 05:21:31;;;;;;;;;;;;;;;-5.82;91.86;100520.31;5019402;28;20384;-71
2021/12/27 05:23:57;;;;;;;;;;;;;;;-5.93;92.15;100518.13;5019505;28;19932;-72
2021/12/27 05:26:22;;;;;;;;;;;;;;;-5.90;92.50;100518.81;5020033;28;19951;-72
2021/12/27 05:28:48;;;;;;;;;;;;;;;-5.88;92.53;100514.53;5015386;28;20619;-74
2021/12/27 05:31:14;;;;;;;;;;;;;;;-5.92;92.90;100505.28;4996648;28;19925;-72
2021/12/27 05:33:40;;;;;;;;;;;;;;;-5.81;93.05;100515.16;5026821;28;19939;-71
2021/12/27 05:36:05;;;;;;;;;;;;;;;-5.83;93.88;100519.50;5029678;28;19916;-72
2021/12/27 05:38:31;;;;;;;;;;;;;;;-5.81;93.36;100522.00;5021163;28;19917;-73
2021/12/27 05:40:56;;;;;;;;;;;;;;;-5.82;93.67;100518.63;5026826;28;19917;-73
2021/12/27 05:43:22;;;;;;;;;;;;;;;-5.76;93.50;100515.03;5020613;28;20008;-74
2021/12/27 05:45:48;;;;;;;;;;;;;;;-5.75;92.91;100522.63;5017047;28;19925;-73
2021/12/27 05:48:15;;;;;;;;;;;;;;;-5.75;93.23;100522.63;5002094;28;19913;-72
2021/12/27 05:50:41;;;;;;;;;;;;;;;-5.78;93.15;100501.44;4998983;28;20354;-72
2021/12/27 05:53:07;;;;;;;;;;;;;;;-5.75;93.65;100498.81;5032721;28;20297;-72
2021/12/27 05:55:33;;;;;;;;;;;;;;;-5.77;94.07;100498.03;5017450;28;19917;-72
2021/12/27 05:57:58;;;;;;;;;;;;;;;-5.68;93.91;100498.56;5023707;28;20398;-73
2021/12/27 06:00:24;;;;;;;;;;;;;;;-5.60;93.25;100495.75;5017901;28;19917;-72
2021/12/27 06:02:51;;;;;;;;;;;;;;;-5.59;93.65;100486.38;5021283;28;19924;-73
2021/12/27 06:05:17;;;;;;;;;;;;;;;-5.67;92.42;100484.06;5013859;28;19924;-72
2021/12/27 06:07:43;;;;;;;;;;;;;;;-5.71;93.04;100478.25;5017375;28;19921;-72
2021/12/27 06:10:08;;;;;;;;;;;;;;;-5.69;93.91;100473.06;5014353;28;19917;-72
2021/12/27 06:12:34;;;;;;;;;;;;;;;-5.67;93.09;100471.28;4993495;28;19916;-71
2021/12/27 06:14:59;;;;;;;;;;;;;;;-5.59;93.64;100479.56;4997370;28;19978;-71
2021/12/27 06:17:25;;;;;;;;;;;;;;;-5.67;93.26;100476.38;4999253;28;19917;-71
2021/12/27 06:19:50;;;;;;;;;;;;;;;-5.52;92.94;100475.91;5024694;28;19955;-72
2021/12/27 06:22:16;;;;;;;;;;;;;;;-5.57;93.61;100469.28;5010819;28;20597;-72
2021/12/27 06:24:41;;;;;;;;;;;;;;;-5.52;93.56;100470.81;5019346;28;19943;-74
2021/12/27 06:27:07;;;;;;;;;;;;;;;-5.52;92.59;100469.94;5005444;28;19921;-71
2021/12/27 06:29:32;;;;;;;;;;;;;;;-5.47;92.21;100468.06;5005818;28;19921;-73
2021/12/27 06:31:58;;;;;;;;;;;;;;;-5.50;93.32;100470.72;5021574;28;19924;-72
2021/12/27 06:34:23;;;;;;;;;;;;;;;-5.54;93.35;100464.06;5023972;28;19917;-71
2021/12/27 06:36:49;;;;;;;;;;;;;;;-5.43;92.75;100458.59;5017928;28;19937;-72
2021/12/27 06:39:14;;;;;;;;;;;;;;;-5.41;92.19;100464.47;4963611;28;19917;-73
2021/12/27 06:41:40;;;;;;;;;;;;;;;-5.44;93.23;100462.00;5027019;28;19921;-73
2021/12/27 06:44:05;;;;;;;;;;;;;;;-5.42;92.84;100468.75;5002022;28;19921;-71
2021/12/27 06:46:31;;;;;;;;;;;;;;;-5.39;92.78;100470.38;5015421;28;19972;-71
2021/12/27 06:48:57;;;;;;;;;;;;;;;-5.36;93.03;100468.56;5005493;28;19917;-74
2021/12/27 06:51:22;;;;;;;;;;;;;;;-5.37;92.94;100464.34;5012665;28;20087;-71
2021/12/27 06:53:47;;;;;;;;;;;;;;;-5.34;94.17;100458.28;5025248;28;19940;-72
2021/12/27 06:56:13;;;;;;;;;;;;;;;-5.38;93.77;100455.00;5006801;28;20008;-73
2021/12/27 06:58:38;;;;;;;;;;;;;;;-5.39;94.94;100457.59;5014465;28;19980;-71
2021/12/27 07:01:04;;;;;;;;;;;;;;;-5.39;95.69;100450.75;5011395;28;20051;-71
2021/12/27 07:03:30;;;;;;;;;;;;;;;-5.40;95.38;100467.00;5023086;28;19928;-73
2021/12/27 07:05:55;;;;;;;;;;;;;;;-5.33;95.24;100457.38;4991310;28;19913;-72
2021/12/27 07:08:22;;;;;;;;;;;;;;;-5.35;95.48;100464.25;5013876;28;19920;-73
2021/12/27 07:10:48;;;;;;;;;;;;;;;-5.45;95.87;100466.31;4995938;28;19994;-71
2021/12/27 07:13:14;;;;;;;;;;;;;;;-5.50;96.03;100460.50;4999959;28;19932;-71
2021/12/27 07:15:41;;;;;;;;;;;;;;;-5.53;96.16;100456.34;4987065;28;19920;-72
2021/12/27 07:18:13;;;;;;;;;;;;;;;-5.53;96.30;100450.41;5017037;28;20749;-73
2021/12/27 07:20:39;;;;;;;;;;;;;;;-5.54;97.32;100439.34;5012916;28;20003;-72
2021/12/27 07:23:06;;;;;;;;;;;;;;;-5.60;96.76;100447.19;5019412;28;20421;-72
2021/12/27 07:25:31;;;;;;;;;;;;;;;-5.55;96.18;100452.16;5019611;28;19924;-72
2021/12/27 07:27:57;;;;;;;;;;;;;;;-5.62;96.03;100454.09;5007123;28;19921;-72
2021/12/27 07:30:23;;;;;;;;;;;;;;;-5.63;96.33;100456.69;5036664;28;20390;-72
2021/12/27 07:32:49;;;;;;;;;;;;;;;-5.59;97.56;100454.00;5023407;28;19920;-73
2021/12/27 07:35:14;;;;;;;;;;;;;;;-5.59;96.60;100448.06;5005871;28;20013;-71
2021/12/27 07:37:41;;;;;;;;;;;;;;;-5.58;97.12;100447.16;4992473;28;19922;-74
2021/12/27 07:40:07;;;;;;;;;;;;;;;-5.54;96.70;100457.25;5025377;28;19917;-72
2021/12/27 07:42:33;;;;;;;;;;;;;;;-5.53;96.93;100455.50;5025641;28;21860;-71
2021/12/27 07:44:58;;;;;;;;;;;;;;;-5.50;96.89;100457.94;5021473;28;19917;-72
2021/12/27 07:47:24;;;;;;;;;;;;;;;-5.49;97.05;100451.97;5016537;28;19931;-72
2021/12/27 07:49:49;;;;;;;;;;;;;;;-5.41;97.35;100449.97;5010714;28;19921;-73
2021/12/27 07:52:15;;;;;;;;;;;;;;;-5.45;96.52;100450.13;5011219;28;19917;-72
2021/12/27 07:54:41;;;;;;;;;;;;;;;-5.49;97.54;100450.22;5027812;28;19920;-72
2021/12/27 07:57:06;;;;;;;;;;;;;;;-5.43;97.19;100453.47;5021149;28;19970;-74
2021/12/27 07:59:32;;;;;;;;;;;;;;;-5.50;97.23;100451.13;4999089;28;19963;-71
2021/12/27 08:01:58;;;;;;;;;;;;;;;-5.39;97.02;100455.03;5019592;28;19917;-71
2021/12/27 08:04:24;;;;;;;;;;;;;;;-5.44;95.97;100452.66;5016219;28;20375;-71
2021/12/27 08:06:50;;;;;;;;;;;;;;;-5.45;96.05;100443.28;4999811;28;20363;-72
2021/12/27 08:09:15;;;;;;;;;;;;;;;-5.44;96.75;100437.31;5018225;28;19940;-73
2021/12/27 08:11:41;;;;;;;;;;;;;;;-5.43;97.04;100433.03;5030591;28;20378;-71
2021/12/27 08:14:09;;;;;;;;;;;;;;;-5.39;96.86;100425.19;5005935;28;19979;-74
2021/12/27 08:16:34;;;;;;;;;;;;;;;-5.32;97.28;100425.81;5014668;28;19917;-72
2021/12/27 08:19:00;;;;;;;;;;;;;;;-5.30;97.26;100427.44;5016691;28;20214;-72
2021/12/27 08:21:26;;;;;;;;;;;;;;;-5.38;97.09;100426.88;4986331;28;20541;-72
2021/12/27 08:23:52;;;;;;;;;;;;;;;-5.36;97.91;100426.81;5000255;28;20374;-73
2021/12/27 08:26:18;;;;;;;;;;;;;;;-5.25;97.32;100429.00;5016721;28;19913;-71
2021/12/27 08:28:44;;;;;;;;;;;;;;;-5.29;97.35;100426.56;5028784;28;19920;-71
2021/12/27 08:31:10;;;;;;;;;;;;;;;-5.22;98.22;100429.72;5023624;28;20441;-72
2021/12/27 08:33:35;;;;;;;;;;;;;;;-5.11;98.02;100422.50;5012643;28;19924;-71
2021/12/27 08:36:01;;;;;;;;;;;;;;;-5.06;98.15;100422.34;4996715;28;20068;-72
2021/12/27 08:38:26;;;;;;;;;;;;;;;-5.07;98.02;100425.78;4996812;28;19917;-71
2021/12/27 08:40:52;;;;;;;;;;;;;;;-5.00;98.18;100428.97;5028713;28;19917;-71
2021/12/27 08:43:17;;;;;;;;;;;;;;;-4.88;97.28;100431.06;5018005;28;19921;-71
2021/12/27 08:45:43;;;;;;;;;;;;;;;-4.79;97.03;100425.63;4980561;28;19917;-72
2021/12/27 08:48:09;;;;;;;;;;;;;;;-4.84;97.27;100421.56;5020030;28;19916;-72
2021/12/27 08:50:37;;;;;;;;;;;;;;;-4.82;97.55;100430.00;4999350;28;19963;-71
2021/12/27 08:53:03;;;;;;;;;;;;;;;-4.75;96.86;100437.41;5017446;28;19924;-70
2021/12/27 08:55:29;;;;;;;;;;;;;;;-4.74;98.00;100433.97;5003926;28;20393;-71
2021/12/27 08:57:54;;;;;;;;;;;;;;;-4.68;97.09;100438.03;5012425;28;19960;-71
2021/12/27 09:00:20;;;;;;;;;;;;;;;-4.67;98.00;100432.03;4996909;28;21140;-71
2021/12/27 09:02:45;;;;;;;;;;;;;;;-4.73;97.42;100439.91;5021488;28;19956;-71
2021/12/27 09:05:11;;;;;;;;;;;;;;;-4.67;98.16;100433.72;4993519;28;19921;-72
2021/12/27 09:07:37;;;;;;;;;;;;;;;-4.71;97.90;100428.75;4989245;28;19992;-70
2021/12/27 09:10:03;;;;;;;;;;;;;;;-4.71;98.47;100428.75;5023353;28;20017;-71
2021/12/27 09:12:29;;;;;;;;;;;;;;;-4.78;98.67;100426.47;5023613;28;19913;-71
2021/12/27 09:14:54;;;;;;;;;;;;;;;-4.66;99.21;100433.69;5025170;28;19917;-71
2021/12/27 09:17:20;;;;;;;;;;;;;;;-4.64;98.61;100431.06;4996352;28;20168;-70
2021/12/27 09:19:45;;;;;;;;;;;;;;;-4.68;99.05;100434.63;5022431;28;19917;-71
2021/12/27 09:22:13;;;;;;;;;;;;;;;-4.67;98.86;100432.03;5018860;28;19913;-71
2021/12/27 09:24:39;;;;;;;;;;;;;;;-4.54;99.31;100440.06;5016509;28;19975;-71
2021/12/27 09:27:05;;;;;;;;;;;;;;;-4.57;98.81;100425.66;5010008;28;19976;-70
2021/12/27 09:29:30;;;;;;;;;;;;;;;-4.60;98.35;100420.66;5005063;28;19982;-72
2021/12/27 09:31:56;;;;;;;;;;;;;;;-4.57;98.47;100417.97;5033105;28;19912;-70
2021/12/27 09:34:21;;;;;;;;;;;;;;;-4.55;98.73;100416.19;5012029;28;19917;-72
2021/12/27 09:36:47;;;;;;;;;;;;;;;-4.53;98.95;100422.09;5022259;28;19913;-71
2021/12/27 09:39:13;;;;;;;;;;;;;;;-4.58;98.99;100415.47;5008844;28;20084;-70
2021/12/27 09:41:38;;;;;;;;;;;;;;;-4.57;99.10;100417.97;5019767;28;19916;-71
2021/12/27 09:44:05;;;;;;;;;;;;;;;-4.59;99.44;100417.22;5021233;28;19917;-71
2021/12/27 09:46:31;;;;;;;;;;;;;;;-4.55;100.00;100416.19;5005468;28;19924;-70
2021/12/27 09:48:58;;;;;;;;;;;;;;;-4.52;99.88;100405.00;5002131;28;20279;-71
2021/12/27 09:51:24;;;;;;;;;;;;;;;-4.52;100.00;100402.44;5017637;28;20442;-71
2021/12/27 09:53:49;;;;;;;;;;;;;;;-4.50;99.77;100400.69;5007830;28;19921;-70
2021/12/27 09:56:15;;;;;;;;;;;;;;;-4.46;100.00;100409.03;5017587;28;19917;-70
2021/12/27 09:58:42;;;;;;;;;;;;;;;-4.51;100.00;100404.13;5025687;28;19923;-71
2021/12/27 10:01:09;;;;;;;;;;;;;;;-4.45;100.00;100391.06;5020169;28;19917;-72
2021/12/27 10:03:48;;;;;;;;;;;;;;;-4.46;100.00;100386.84;5020265;28;19921;-73
2021/12/27 10:06:17;;;;;;;;;;;;;;;-4.46;100.00;100376.63;5018232;28;20358;-71
2021/12/27 10:08:45;;;;;;;;;;;;;;;-4.40;100.00;100381.50;5020602;28;19919;-70
2021/12/27 10:11:36;;;;;;;;;;;;;;;-4.38;100.00;100384.81;5039668;28;20640;-73
2021/12/27 10:14:04;;;;;;;;;;;;;;;-4.39;100.00;100385.72;5038630;28;20011;-70
2021/12/27 10:16:30;;;;;;;;;;;;;;;-4.34;100.00;100375.28;5036165;28;19914;-71
2021/12/27 10:18:57;;;;;;;;;;;;;;;-4.29;100.00;100368.28;5031247;28;19913;-71
2021/12/27 10:21:23;;;;;;;;;;;;;;;-4.28;100.00;100371.66;5020213;28;19927;-69
2021/12/27 10:23:48;;;;;;;;;;;;;;;-4.27;100.00;100365.66;5016078;28;19926;-71
2021/12/27 10:26:17;;;;;;;;;;;;;;;-4.35;100.00;100365.94;5020133;28;20297;-71
2021/12/27 10:28:43;;;;;;;;;;;;;;;-4.34;100.00;100363.31;5000389;28;20374;-71
2021/12/27 10:31:09;;;;;;;;;;;;;;;-4.22;100.00;100367.13;5015322;28;20010;-71
2021/12/27 10:33:34;;;;;;;;;;;;;;;-4.11;100.00;100361.56;5014860;28;20275;-71
2021/12/27 10:36:00;;;;;;;;;;;;;;;-4.17;100.00;100357.50;5004195;28;20002;-70
2021/12/27 10:38:27;;;;;;;;;;;;;;;-4.16;100.00;100359.19;5019092;28;20560;-72
2021/12/27 10:40:53;;;;;;;;;;;;;;;-4.04;100.00;100360.41;5022303;28;19913;-71
2021/12/27 10:43:31;;;;;;;;;;;;;;;-4.00;100.00;100351.72;5022163;28;19927;-72
2021/12/27 10:46:01;;;;;;;;;;;;;;;-3.92;100.00;100354.81;5002907;28;19917;-71
2021/12/27 10:48:31;;;;;;;;;;;;;;;-3.92;100.00;100353.94;5018305;28;19924;-71
2021/12/27 10:50:57;;;;;;;;;;;;;;;-3.80;100.00;100357.75;5022539;28;19921;-71
2021/12/27 10:53:23;;;;;;;;;;;;;;;-3.77;100.00;100347.34;5012727;28;19913;-71
2021/12/27 10:55:48;;;;;;;;;;;;;;;-3.80;100.00;100348.31;5016534;28;20628;-70
2021/12/27 10:58:25;;;;;;;;;;;;;;;-3.77;100.00;100343.09;5023746;28;20035;-72
2021/12/27 11:00:58;;;;;;;;;;;;;;;-3.77;100.00;100332.81;5013122;28;19913;-72
2021/12/27 11:03:29;;;;;;;;;;;;;;;-3.73;100.00;100333.50;5015542;28;19921;-72
2021/12/27 11:05:55;;;;;;;;;;;;;;;-3.75;100.00;100336.16;4991670;28;19925;-72
2021/12/27 11:08:21;;;;;;;;;;;;;;;-3.75;100.00;100333.59;5021479;28;19913;-70
2021/12/27 11:10:47;;;;;;;;;;;;;;;-3.79;100.00;100342.28;5030292;28;19924;-70
2021/12/27 11:13:12;;;;;;;;;;;;;;;-3.75;100.00;100341.28;5004140;28;20270;-70
2021/12/27 11:15:39;;;;;;;;;;;;;;;-3.78;100.00;100332.88;5028392;28;20408;-73
2021/12/27 11:18:05;;;;;;;;;;;;;;;-3.75;100.00;100327.59;5010916;28;20457;-71
2021/12/27 11:20:31;;;;;;;;;;;;;;;-3.67;100.00;100330.69;5006515;28;20035;-72
2021/12/27 11:23:00;;;;;;;;;;;;;;;-3.68;100.00;100325.63;5027806;28;19913;-71
2021/12/27 11:25:31;;;;;;;;;;;;;;;-3.60;100.00;100328.69;5008222;28;19917;-71
2021/12/27 11:27:57;;;;;;;;;;;;;;;-3.69;100.00;100322.25;4990359;28;19935;-71
2021/12/27 11:30:24;;;;;;;;;;;;;;;-3.73;100.00;100318.97;5016524;28;19995;-71
2021/12/27 11:33:12;;;;;;;;;;;;;;;-3.70;100.00;100322.31;5007015;28;19925;-70
2021/12/27 11:35:58;;;;;;;;;;;;;;;-3.62;100.00;100326.19;5024716;28;20003;-72
2021/12/27 11:38:31;;;;;;;;;;;;;;;-3.69;100.00;100317.13;4988480;28;19924;-71
2021/12/27 11:40:58;;;;;;;;;;;;;;;-3.66;100.00;100311.84;5023901;28;19917;-73
2021/12/27 11:43:23;;;;;;;;;;;;;;;-3.54;100.00;100298.50;5006173;28;20837;-71
2021/12/27 11:45:52;;;;;;;;;;;;;;;-3.52;100.00;100311.25;5018114;28;20375;-70
2021/12/27 11:48:18;;;;;;;;;;;;;;;-3.54;100.00;100301.06;5012992;28;19913;-71
2021/12/27 11:51:04;;;;;;;;;;;;;;;-3.48;100.00;100299.09;5016058;28;19999;-71
2021/12/27 11:53:43;;;;;;;;;;;;;;;-3.52;100.00;100294.13;5003738;28;20465;-71
2021/12/27 11:56:09;;;;;;;;;;;;;;;-3.47;100.00;100287.97;5023855;28;19920;-71
2021/12/27 11:58:36;;;;;;;;;;;;;;;-3.40;100.00;100279.94;5014630;28;20705;-70
2021/12/27 12:01:03;;;;;;;;;;;;;;;-3.35;100.00;100280.56;5016968;28;19913;-70
2021/12/27 12:03:40;;;;;;;;;;;;;;;-3.33;100.00;100280.50;5012756;28;20019;-71
2021/12/27 12:06:06;;;;;;;;;;;;;;;-3.32;100.00;100285.53;5021165;28;19976;-71
2021/12/27 12:08:38;;;;;;;;;;;;;;;-3.30;100.00;100290.59;5022838;28;19980;-72
2021/12/27 12:11:04;;;;;;;;;;;;;;;-3.25;100.00;100285.28;5022836;28;20007;-71
2021/12/27 12:13:36;;;;;;;;;;;;;;;-3.23;100.00;100279.16;5025066;28;19960;-72
2021/12/27 12:16:01;;;;;;;;;;;;;;;-3.19;100.00;100279.88;5008880;28;19917;-71
2021/12/27 12:18:28;;;;;;;;;;;;;;;-3.17;100.00;100280.63;5013303;28;19928;-72
2021/12/27 12:20:53;;;;;;;;;;;;;;;-3.14;100.00;100272.78;5011332;28;19913;-72
2021/12/27 12:23:19;;;;;;;;;;;;;;;-3.11;100.00;100270.06;5017872;28;19917;-71
2021/12/27 12:25:44;;;;;;;;;;;;;;;-3.02;100.00;100273.97;5016416;28;19921;-71
2021/12/27 12:28:11;;;;;;;;;;;;;;;-3.05;100.00;100277.50;5008772;28;19924;-70
2021/12/27 12:30:38;;;;;;;;;;;;;;;-3.07;100.00;100276.75;4997272;28;19917;-72
2021/12/27 12:33:08;;;;;;;;;;;;;;;-3.16;100.00;100272.84;5000293;28;19964;-71
2021/12/27 12:35:37;;;;;;;;;;;;;;;-3.07;100.00;100278.47;5022008;28;20409;-72
2021/12/27 12:38:14;;;;;;;;;;;;;;;-2.98;100.00;100275.47;5020947;28;20263;-69
2021/12/27 12:40:40;;;;;;;;;;;;;;;-2.97;100.00;100275.41;5029608;28;19917;-70
2021/12/27 12:43:06;;;;;;;;;;;;;;;-3.01;100.00;100273.88;5028338;28;19917;-73